sensor_id;sensor_type;location;lat;lon;timestamp;temperature;humidity
27506;DHT22;14939;43.596;1.320;2023-04-24T00:00:15;10.60;99.90
27506;DHT22;14939;43.596;1.320;2023-04-24T00:02:44;10.60;99.90
27506;DHT22;14939;43.596;1.320;2023-04-24T00:05:13;10.60;99.90
27506;DHT22;14939;43.596;1.320;2023-04-24T00:07:39;10.60;99.90
27506;DHT22;14939;43.596;1.320;2023-04-24T00:10:06;10.80;99.90
27506;DHT22;14939;43.596;1.320;2023-04-24T00:12:32;10.80;99.90
27506;DHT22;14939;43.596;1.320;2023-04-24T00:14:57;10.90;99.90
27506;DHT22;14939;43.596;1.320;2023-04-24T00:17:23;10.90;99.90
27506;DHT22;14939;43.596;1.320;2023-04-24T00:19:49;10.90;99.90
27506;DHT22;14939;43.596;1.320;2023-04-24T00:22:27;10.70;99.90
27506;DHT22;14939;43.596;1.320;2023-04-24T00:24:53;10.60;99.90
27506;DHT22;14939;43.596;1.320;2023-04-24T00:27:18;10.50;99.90
27506;DHT22;14939;43.596;1.320;2023-04-24T00:29:44;10.40;99.90
27506;DHT22;14939;43.596;1.320;2023-04-24T00:32:10;10.40;99.90
27506;DHT22;14939;43.596;1.320;2023-04-24T00:34:36;10.30;99.90
27506;DHT22;14939;43.596;1.320;2023-04-24T00:37:02;10.30;99.90
27506;DHT22;14939;43.596;1.320;2023-04-24T00:39:27;10.30;99.90
27506;DHT22;14939;43.596;1.320;2023-04-24T00:41:53;10.30;99.90
27506;DHT22;14939;43.596;1.320;2023-04-24T00:44:19;10.30;99.90
27506;DHT22;14939;43.596;1.320;2023-04-24T00:46:46;10.30;99.90
27506;DHT22;14939;43.596;1.320;2023-04-24T00:49:13;10.20;99.90
27506;DHT22;14939;43.596;1.320;2023-04-24T00:51:40;10.20;99.90
27506;DHT22;14939;43.596;1.320;2023-04-24T00:54:06;10.20;99.90
27506;DHT22;14939;43.596;1.320;2023-04-24T00:56:32;10.20;99.90
27506;DHT22;14939;43.596;1.320;2023-04-24T00:58:58;10.20;99.90
27506;DHT22;14939;43.596;1.320;2023-04-24T01:01:24;10.30;99.90
27506;DHT22;14939;43.596;1.320;2023-04-24T01:03:51;10.20;99.90
27506;DHT22;14939;43.596;1.320;2023-04-24T01:06:18;10.20;99.90
27506;DHT22;14939;43.596;1.320;2023-04-24T01:08:44;10.20;99.90
27506;DHT22;14939;43.596;1.320;2023-04-24T01:11:11;10.10;99.90
27506;DHT22;14939;43.596;1.320;2023-04-24T01:13:37;10.20;99.90
27506;DHT22;14939;43.596;1.320;2023-04-24T01:16:03;10.20;99.90
27506;DHT22;14939;43.596;1.320;2023-04-24T01:18:28;10.30;99.90
27506;DHT22;14939;43.596;1.320;2023-04-24T01:20:58;10.40;99.90
27506;DHT22;14939;43.596;1.320;2023-04-24T01:23:25;10.30;99.90
27506;DHT22;14939;43.596;1.320;2023-04-24T01:25:51;10.30;99.90
27506;DHT22;14939;43.596;1.320;2023-04-24T01:28:17;10.30;99.90
27506;DHT22;14939;43.596;1.320;2023-04-24T01:30:43;10.40;99.90
27506;DHT22;14939;43.596;1.320;2023-04-24T01:33:09;10.50;99.90
27506;DHT22;14939;43.596;1.320;2023-04-24T01:35:36;10.50;99.90
27506;DHT22;14939;43.596;1.320;2023-04-24T01:38:03;10.50;99.90
27506;DHT22;14939;43.596;1.320;2023-04-24T01:40:29;10.50;99.90
27506;DHT22;14939;43.596;1.320;2023-04-24T01:42:55;10.50;99.90
27506;DHT22;14939;43.596;1.320;2023-04-24T01:45:21;10.40;99.90
27506;DHT22;14939;43.596;1.320;2023-04-24T01:47:47;10.30;99.90
27506;DHT22;14939;43.596;1.320;2023-04-24T01:50:14;10.30;99.90
27506;DHT22;14939;43.596;1.320;2023-04-24T01:52:40;10.20;99.90
27506;DHT22;14939;43.596;1.320;2023-04-24T01:55:06;10.20;99.90
27506;DHT22;14939;43.596;1.320;2023-04-24T01:57:33;10.30;99.90
27506;DHT22;14939;43.596;1.320;2023-04-24T01:59:59;10.30;99.90
27506;DHT22;14939;43.596;1.320;2023-04-24T02:02:25;10.20;99.90
27506;DHT22;14939;43.596;1.320;2023-04-24T02:04:53;10.10;99.90
27506;DHT22;14939;43.596;1.320;2023-04-24T02:07:19;10.00;99.90
27506;DHT22;14939;43.596;1.320;2023-04-24T02:09:45;9.90;99.90
27506;DHT22;14939;43.596;1.320;2023-04-24T02:12:10;9.80;99.90
27506;DHT22;14939;43.596;1.320;2023-04-24T02:14:36;9.80;99.90
27506;DHT22;14939;43.596;1.320;2023-04-24T02:17:02;9.70;99.90
27506;DHT22;14939;43.596;1.320;2023-04-24T02:19:28;9.60;99.90
27506;DHT22;14939;43.596;1.320;2023-04-24T02:21:54;9.50;99.90
27506;DHT22;14939;43.596;1.320;2023-04-24T02:24:19;9.40;99.90
27506;DHT22;14939;43.596;1.320;2023-04-24T02:26:45;9.30;99.90
27506;DHT22;14939;43.596;1.320;2023-04-24T02:29:11;9.30;99.90
27506;DHT22;14939;43.596;1.320;2023-04-24T02:31:36;9.30;99.90
27506;DHT22;14939;43.596;1.320;2023-04-24T02:34:02;9.30;99.90
27506;DHT22;14939;43.596;1.320;2023-04-24T02:36:28;9.30;99.90
27506;DHT22;14939;43.596;1.320;2023-04-24T02:38:53;9.40;99.90
27506;DHT22;14939;43.596;1.320;2023-04-24T02:41:19;9.50;99.90
27506;DHT22;14939;43.596;1.320;2023-04-24T02:43:45;9.60;99.90
27506;DHT22;14939;43.596;1.320;2023-04-24T02:46:11;9.70;99.90
27506;DHT22;14939;43.596;1.320;2023-04-24T02:48:36;9.70;99.90
27506;DHT22;14939;43.596;1.320;2023-04-24T02:51:02;9.80;99.90
27506;DHT22;14939;43.596;1.320;2023-04-24T02:53:28;9.90;99.90
27506;DHT22;14939;43.596;1.320;2023-04-24T02:55:56;9.90;99.90
27506;DHT22;14939;43.596;1.320;2023-04-24T02:58:22;10.00;99.90
27506;DHT22;14939;43.596;1.320;2023-04-24T03:00:47;10.00;99.90
27506;DHT22;14939;43.596;1.320;2023-04-24T03:03:14;10.10;99.90
27506;DHT22;14939;43.596;1.320;2023-04-24T03:05:40;10.10;99.90
27506;DHT22;14939;43.596;1.320;2023-04-24T03:08:06;10.20;99.90
27506;DHT22;14939;43.596;1.320;2023-04-24T03:10:32;10.20;99.90
27506;DHT22;14939;43.596;1.320;2023-04-24T03:12:57;10.30;99.90
27506;DHT22;14939;43.596;1.320;2023-04-24T03:15:23;10.30;99.90
27506;DHT22;14939;43.596;1.320;2023-04-24T03:17:49;10.40;99.90
27506;DHT22;14939;43.596;1.320;2023-04-24T03:20:16;10.40;99.90
27506;DHT22;14939;43.596;1.320;2023-04-24T03:22:41;10.40;99.90
27506;DHT22;14939;43.596;1.320;2023-04-24T03:25:07;10.40;99.90
27506;DHT22;14939;43.596;1.320;2023-04-24T03:27:34;10.40;99.90
27506;DHT22;14939;43.596;1.320;2023-04-24T03:30:00;10.30;99.90
27506;DHT22;14939;43.596;1.320;2023-04-24T03:32:26;10.20;99.90
27506;DHT22;14939;43.596;1.320;2023-04-24T03:34:52;10.10;99.90
27506;DHT22;14939;43.596;1.320;2023-04-24T03:37:17;10.00;99.90
27506;DHT22;14939;43.596;1.320;2023-04-24T03:39:43;10.00;99.90
27506;DHT22;14939;43.596;1.320;2023-04-24T03:42:09;10.00;99.90
27506;DHT22;14939;43.596;1.320;2023-04-24T03:44:35;10.10;99.90
27506;DHT22;14939;43.596;1.320;2023-04-24T03:47:01;10.20;99.90
27506;DHT22;14939;43.596;1.320;2023-04-24T03:49:27;10.30;99.90
27506;DHT22;14939;43.596;1.320;2023-04-24T03:51:53;10.30;99.90
27506;DHT22;14939;43.596;1.320;2023-04-24T03:54:19;10.40;99.90
27506;DHT22;14939;43.596;1.320;2023-04-24T03:56:45;10.40;99.90
27506;DHT22;14939;43.596;1.320;2023-04-24T03:59:11;10.50;99.90
27506;DHT22;14939;43.596;1.320;2023-04-24T04:01:36;10.50;99.90
27506;DHT22;14939;43.596;1.320;2023-04-24T04:04:06;10.50;99.90
27506;DHT22;14939;43.596;1.320;2023-04-24T04:06:33;10.60;99.90
27506;DHT22;14939;43.596;1.320;2023-04-24T04:08:59;10.60;99.90
27506;DHT22;14939;43.596;1.320;2023-04-24T04:11:25;10.60;99.90
27506;DHT22;14939;43.596;1.320;2023-04-24T04:13:51;10.60;99.90
27506;DHT22;14939;43.596;1.320;2023-04-24T04:16:17;10.60;99.90
27506;DHT22;14939;43.596;1.320;2023-04-24T04:18:45;10.50;99.90
27506;DHT22;14939;43.596;1.320;2023-04-24T04:21:11;10.50;99.90
27506;DHT22;14939;43.596;1.320;2023-04-24T04:23:37;10.50;99.90
27506;DHT22;14939;43.596;1.320;2023-04-24T04:26:03;10.40;99.90
27506;DHT22;14939;43.596;1.320;2023-04-24T04:28:29;10.40;99.90
27506;DHT22;14939;43.596;1.320;2023-04-24T04:30:57;10.40;99.90
27506;DHT22;14939;43.596;1.320;2023-04-24T04:33:23;10.30;99.90
27506;DHT22;14939;43.596;1.320;2023-04-24T04:35:50;10.40;99.90
27506;DHT22;14939;43.596;1.320;2023-04-24T04:38:18;10.40;99.90
27506;DHT22;14939;43.596;1.320;2023-04-24T04:40:44;10.40;99.90
27506;DHT22;14939;43.596;1.320;2023-04-24T04:43:10;10.50;99.90
27506;DHT22;14939;43.596;1.320;2023-04-24T04:45:37;10.50;99.90
27506;DHT22;14939;43.596;1.320;2023-04-24T04:48:04;10.60;99.90
27506;DHT22;14939;43.596;1.320;2023-04-24T04:50:30;10.70;99.90
27506;DHT22;14939;43.596;1.320;2023-04-24T04:52:56;10.70;99.90
27506;DHT22;14939;43.596;1.320;2023-04-24T04:55:21;10.70;99.90
27506;DHT22;14939;43.596;1.320;2023-04-24T04:57:47;10.70;99.90
27506;DHT22;14939;43.596;1.320;2023-04-24T05:00:13;10.80;99.90
27506;DHT22;14939;43.596;1.320;2023-04-24T05:02:39;10.80;99.90
27506;DHT22;14939;43.596;1.320;2023-04-24T05:05:06;10.90;99.90
27506;DHT22;14939;43.596;1.320;2023-04-24T05:07:32;10.80;99.90
27506;DHT22;14939;43.596;1.320;2023-04-24T05:09:58;10.90;99.90
27506;DHT22;14939;43.596;1.320;2023-04-24T05:12:24;10.90;99.90
27506;DHT22;14939;43.596;1.320;2023-04-24T05:14:49;10.90;99.90
27506;DHT22;14939;43.596;1.320;2023-04-24T05:17:15;10.90;99.90
27506;DHT22;14939;43.596;1.320;2023-04-24T05:19:41;10.90;99.90
27506;DHT22;14939;43.596;1.320;2023-04-24T05:22:07;10.90;99.90
27506;DHT22;14939;43.596;1.320;2023-04-24T05:24:35;10.90;99.90
27506;DHT22;14939;43.596;1.320;2023-04-24T05:27:02;10.90;99.90
27506;DHT22;14939;43.596;1.320;2023-04-24T05:29:28;10.90;99.90
27506;DHT22;14939;43.596;1.320;2023-04-24T05:31:56;10.80;99.90
27506;DHT22;14939;43.596;1.320;2023-04-24T05:34:22;10.80;99.90
27506;DHT22;14939;43.596;1.320;2023-04-24T05:36:48;10.80;99.90
27506;DHT22;14939;43.596;1.320;2023-04-24T05:39:14;10.80;99.90
27506;DHT22;14939;43.596;1.320;2023-04-24T05:41:40;10.80;99.90
27506;DHT22;14939;43.596;1.320;2023-04-24T05:44:06;10.80;99.90
27506;DHT22;14939;43.596;1.320;2023-04-24T05:46:32;10.80;99.90
27506;DHT22;14939;43.596;1.320;2023-04-24T05:48:57;10.90;99.90
27506;DHT22;14939;43.596;1.320;2023-04-24T05:51:23;11.00;99.90
27506;DHT22;14939;43.596;1.320;2023-04-24T05:53:49;11.20;99.90
27506;DHT22;14939;43.596;1.320;2023-04-24T05:56:15;11.30;99.90
27506;DHT22;14939;43.596;1.320;2023-04-24T05:58:41;11.30;99.90
27506;DHT22;14939;43.596;1.320;2023-04-24T06:01:07;11.30;99.90
27506;DHT22;14939;43.596;1.320;2023-04-24T06:03:32;11.30;99.90
27506;DHT22;14939;43.596;1.320;2023-04-24T06:05:58;11.30;99.90
27506;DHT22;14939;43.596;1.320;2023-04-24T06:08:24;11.40;99.90
27506;DHT22;14939;43.596;1.320;2023-04-24T06:10:50;11.50;99.90
27506;DHT22;14939;43.596;1.320;2023-04-24T06:13:15;11.60;99.90
27506;DHT22;14939;43.596;1.320;2023-04-24T06:15:41;11.60;99.90
27506;DHT22;14939;43.596;1.320;2023-04-24T06:18:08;11.70;99.90
27506;DHT22;14939;43.596;1.320;2023-04-24T06:20:35;11.70;99.90
27506;DHT22;14939;43.596;1.320;2023-04-24T06:23:01;11.80;99.90
27506;DHT22;14939;43.596;1.320;2023-04-24T06:25:27;11.90;99.90
27506;DHT22;14939;43.596;1.320;2023-04-24T06:27:54;11.90;99.90
27506;DHT22;14939;43.596;1.320;2023-04-24T06:30:21;11.90;99.90
27506;DHT22;14939;43.596;1.320;2023-04-24T06:32:47;12.00;99.90
27506;DHT22;14939;43.596;1.320;2023-04-24T06:35:12;12.00;99.90
27506;DHT22;14939;43.596;1.320;2023-04-24T06:37:42;12.10;99.90
27506;DHT22;14939;43.596;1.320;2023-04-24T06:40:08;12.00;99.90
27506;DHT22;14939;43.596;1.320;2023-04-24T06:42:34;12.10;99.90
27506;DHT22;14939;43.596;1.320;2023-04-24T06:45:00;12.00;99.90
27506;DHT22;14939;43.596;1.320;2023-04-24T06:47:26;12.00;99.90
27506;DHT22;14939;43.596;1.320;2023-04-24T06:49:52;12.00;99.90
27506;DHT22;14939;43.596;1.320;2023-04-24T06:52:18;12.00;99.90
27506;DHT22;14939;43.596;1.320;2023-04-24T06:54:44;12.00;99.90
27506;DHT22;14939;43.596;1.320;2023-04-24T06:57:10;12.00;99.90
27506;DHT22;14939;43.596;1.320;2023-04-24T06:59:36;12.20;99.90
27506;DHT22;14939;43.596;1.320;2023-04-24T07:02:02;12.30;99.90
27506;DHT22;14939;43.596;1.320;2023-04-24T07:04:28;12.20;99.90
27506;DHT22;14939;43.596;1.320;2023-04-24T07:06:54;12.00;99.90
27506;DHT22;14939;43.596;1.320;2023-04-24T07:09:23;11.80;99.90
27506;DHT22;14939;43.596;1.320;2023-04-24T07:11:51;11.70;99.90
27506;DHT22;14939;43.596;1.320;2023-04-24T07:14:17;11.70;99.90
27506;DHT22;14939;43.596;1.320;2023-04-24T07:16:43;11.70;99.90
27506;DHT22;14939;43.596;1.320;2023-04-24T07:19:09;11.60;99.90
27506;DHT22;14939;43.596;1.320;2023-04-24T07:21:35;11.50;99.90
27506;DHT22;14939;43.596;1.320;2023-04-24T07:24:01;11.50;99.90
27506;DHT22;14939;43.596;1.320;2023-04-24T07:26:29;11.40;99.90
27506;DHT22;14939;43.596;1.320;2023-04-24T07:28:55;11.50;99.90
27506;DHT22;14939;43.596;1.320;2023-04-24T07:31:21;11.50;99.90
27506;DHT22;14939;43.596;1.320;2023-04-24T07:33:47;11.30;99.90
27506;DHT22;14939;43.596;1.320;2023-04-24T07:36:13;11.30;99.90
27506;DHT22;14939;43.596;1.320;2023-04-24T07:38:47;11.20;99.90
27506;DHT22;14939;43.596;1.320;2023-04-24T07:41:13;11.10;99.90
27506;DHT22;14939;43.596;1.320;2023-04-24T07:43:39;11.10;99.90
27506;DHT22;14939;43.596;1.320;2023-04-24T07:46:06;11.20;99.90
27506;DHT22;14939;43.596;1.320;2023-04-24T07:48:32;11.70;99.90
27506;DHT22;14939;43.596;1.320;2023-04-24T07:50:58;11.70;99.90
27506;DHT22;14939;43.596;1.320;2023-04-24T07:53:23;11.90;99.90
27506;DHT22;14939;43.596;1.320;2023-04-24T07:55:49;11.90;99.90
27506;DHT22;14939;43.596;1.320;2023-04-24T07:58:14;11.80;99.90
27506;DHT22;14939;43.596;1.320;2023-04-24T08:00:40;11.90;99.90
27506;DHT22;14939;43.596;1.320;2023-04-24T08:03:06;11.80;99.90
27506;DHT22;14939;43.596;1.320;2023-04-24T08:05:32;11.70;99.90
27506;DHT22;14939;43.596;1.320;2023-04-24T08:07:58;11.80;99.90
27506;DHT22;14939;43.596;1.320;2023-04-24T08:10:24;12.10;99.90
27506;DHT22;14939;43.596;1.320;2023-04-24T08:12:50;12.10;99.90
27506;DHT22;14939;43.596;1.320;2023-04-24T08:15:16;12.10;99.90
27506;DHT22;14939;43.596;1.320;2023-04-24T08:17:42;12.10;99.90
27506;DHT22;14939;43.596;1.320;2023-04-24T08:20:08;12.10;99.90
27506;DHT22;14939;43.596;1.320;2023-04-24T08:22:39;12.10;99.90
27506;DHT22;14939;43.596;1.320;2023-04-24T08:25:06;12.30;99.90
27506;DHT22;14939;43.596;1.320;2023-04-24T08:27:32;12.40;99.90
27506;DHT22;14939;43.596;1.320;2023-04-24T08:29:57;12.40;99.90
27506;DHT22;14939;43.596;1.320;2023-04-24T08:32:25;12.30;99.90
27506;DHT22;14939;43.596;1.320;2023-04-24T08:34:54;12.60;99.90
27506;DHT22;14939;43.596;1.320;2023-04-24T08:37:22;12.60;99.90
27506;DHT22;14939;43.596;1.320;2023-04-24T08:39:47;12.80;99.90
27506;DHT22;14939;43.596;1.320;2023-04-24T08:42:14;12.80;99.90
27506;DHT22;14939;43.596;1.320;2023-04-24T08:44:41;12.90;99.90
27506;DHT22;14939;43.596;1.320;2023-04-24T08:47:08;12.70;99.90
27506;DHT22;14939;43.596;1.320;2023-04-24T08:49:36;12.70;99.90
27506;DHT22;14939;43.596;1.320;2023-04-24T08:52:02;12.90;99.90
27506;DHT22;14939;43.596;1.320;2023-04-24T08:54:28;13.00;99.90
27506;DHT22;14939;43.596;1.320;2023-04-24T08:56:58;13.00;99.90
27506;DHT22;14939;43.596;1.320;2023-04-24T08:59:26;13.50;99.90
27506;DHT22;14939;43.596;1.320;2023-04-24T09:01:53;13.70;99.90
27506;DHT22;14939;43.596;1.320;2023-04-24T09:04:20;14.00;99.90
27506;DHT22;14939;43.596;1.320;2023-04-24T09:06:48;13.90;99.90
27506;DHT22;14939;43.596;1.320;2023-04-24T09:09:16;14.10;99.90
27506;DHT22;14939;43.596;1.320;2023-04-24T09:11:43;14.10;99.90
27506;DHT22;14939;43.596;1.320;2023-04-24T09:14:10;14.30;99.90
27506;DHT22;14939;43.596;1.320;2023-04-24T09:16:36;14.50;99.90
27506;DHT22;14939;43.596;1.320;2023-04-24T09:19:02;14.90;99.90
27506;DHT22;14939;43.596;1.320;2023-04-24T09:21:32;15.00;99.90
27506;DHT22;14939;43.596;1.320;2023-04-24T09:24:01;14.90;99.90
27506;DHT22;14939;43.596;1.320;2023-04-24T09:26:30;15.00;99.90
27506;DHT22;14939;43.596;1.320;2023-04-24T09:28:57;14.80;99.90
27506;DHT22;14939;43.596;1.320;2023-04-24T09:31:23;14.90;99.90
27506;DHT22;14939;43.596;1.320;2023-04-24T09:33:59;15.10;99.90
27506;DHT22;14939;43.596;1.320;2023-04-24T09:36:30;15.20;99.90
27506;DHT22;14939;43.596;1.320;2023-04-24T09:39:01;15.00;99.90
27506;DHT22;14939;43.596;1.320;2023-04-24T09:41:28;15.10;99.90
27506;DHT22;14939;43.596;1.320;2023-04-24T09:43:58;15.10;99.90
27506;DHT22;14939;43.596;1.320;2023-04-24T09:46:30;15.00;99.90
27506;DHT22;14939;43.596;1.320;2023-04-24T09:49:08;15.60;99.90
27506;DHT22;14939;43.596;1.320;2023-04-24T09:51:36;15.80;99.90
27506;DHT22;14939;43.596;1.320;2023-04-24T09:54:04;15.50;99.90
27506;DHT22;14939;43.596;1.320;2023-04-24T09:56:33;15.30;99.90
27506;DHT22;14939;43.596;1.320;2023-04-24T09:59:06;15.30;99.90
27506;DHT22;14939;43.596;1.320;2023-04-24T10:01:32;15.50;99.90
27506;DHT22;14939;43.596;1.320;2023-04-24T10:03:59;16.10;99.80
27506;DHT22;14939;43.596;1.320;2023-04-24T10:06:35;15.90;98.80
27506;DHT22;14939;43.596;1.320;2023-04-24T10:09:02;15.80;96.00
27506;DHT22;14939;43.596;1.320;2023-04-24T10:11:30;15.60;96.30
27506;DHT22;14939;43.596;1.320;2023-04-24T10:13:56;15.70;97.00
27506;DHT22;14939;43.596;1.320;2023-04-24T10:16:23;15.70;96.10
27506;DHT22;14939;43.596;1.320;2023-04-24T10:18:48;16.00;94.50
27506;DHT22;14939;43.596;1.320;2023-04-24T10:21:15;16.10;93.10
27506;DHT22;14939;43.596;1.320;2023-04-24T10:23:42;16.30;94.00
27506;DHT22;14939;43.596;1.320;2023-04-24T10:26:12;16.90;95.00
27506;DHT22;14939;43.596;1.320;2023-04-24T10:28:45;16.90;90.00
27506;DHT22;14939;43.596;1.320;2023-04-24T10:31:12;16.40;90.00
27506;DHT22;14939;43.596;1.320;2023-04-24T10:33:42;16.70;88.90
27506;DHT22;14939;43.596;1.320;2023-04-24T10:36:10;17.00;87.60
27506;DHT22;14939;43.596;1.320;2023-04-24T10:38:37;17.00;86.10
27506;DHT22;14939;43.596;1.320;2023-04-24T10:41:08;17.00;81.10
27506;DHT22;14939;43.596;1.320;2023-04-24T10:43:35;17.20;79.80
27506;DHT22;14939;43.596;1.320;2023-04-24T10:46:02;17.50;75.90
27506;DHT22;14939;43.596;1.320;2023-04-24T10:48:30;17.50;78.10
27506;DHT22;14939;43.596;1.320;2023-04-24T10:50:55;17.50;77.70
27506;DHT22;14939;43.596;1.320;2023-04-24T10:53:23;17.20;77.00
27506;DHT22;14939;43.596;1.320;2023-04-24T10:56:07;16.80;75.40
27506;DHT22;14939;43.596;1.320;2023-04-24T10:58:43;16.60;74.60
27506;DHT22;14939;43.596;1.320;2023-04-24T11:03:57;16.10;77.40
27506;DHT22;14939;43.596;1.320;2023-04-24T11:06:31;15.90;79.50
27506;DHT22;14939;43.596;1.320;2023-04-24T11:09:07;16.10;81.40
27506;DHT22;14939;43.596;1.320;2023-04-24T11:11:34;16.10;78.10
27506;DHT22;14939;43.596;1.320;2023-04-24T11:16:27;15.90;80.80
27506;DHT22;14939;43.596;1.320;2023-04-24T11:22:14;15.70;86.30
27506;DHT22;14939;43.596;1.320;2023-04-24T11:32:30;16.40;79.30
27506;DHT22;14939;43.596;1.320;2023-04-24T11:35:01;16.60;76.70
27506;DHT22;14939;43.596;1.320;2023-04-24T11:37:35;17.20;77.70
27506;DHT22;14939;43.596;1.320;2023-04-24T11:40:02;17.80;75.50
27506;DHT22;14939;43.596;1.320;2023-04-24T11:42:36;17.70;69.30
27506;DHT22;14939;43.596;1.320;2023-04-24T11:45:17;17.40;72.20
27506;DHT22;14939;43.596;1.320;2023-04-24T11:47:43;17.40;72.50
27506;DHT22;14939;43.596;1.320;2023-04-24T11:50:15;17.20;72.20
27506;DHT22;14939;43.596;1.320;2023-04-24T11:52:44;17.10;71.50
27506;DHT22;14939;43.596;1.320;2023-04-24T11:57:46;17.40;71.20
27506;DHT22;14939;43.596;1.320;2023-04-24T12:00:18;17.20;73.80
27506;DHT22;14939;43.596;1.320;2023-04-24T12:02:44;17.20;75.50
27506;DHT22;14939;43.596;1.320;2023-04-24T12:05:23;17.60;75.50
27506;DHT22;14939;43.596;1.320;2023-04-24T12:07:49;18.20;73.80
27506;DHT22;14939;43.596;1.320;2023-04-24T12:10:23;18.30;74.30
27506;DHT22;14939;43.596;1.320;2023-04-24T12:12:50;18.20;71.30
27506;DHT22;14939;43.596;1.320;2023-04-24T12:15:18;17.70;75.80
27506;DHT22;14939;43.596;1.320;2023-04-24T12:17:44;17.20;75.50
27506;DHT22;14939;43.596;1.320;2023-04-24T12:20:11;17.00;75.50
27506;DHT22;14939;43.596;1.320;2023-04-24T12:22:54;16.70;76.20
27506;DHT22;14939;43.596;1.320;2023-04-24T12:25:22;16.90;78.30
27506;DHT22;14939;43.596;1.320;2023-04-24T12:30:29;17.20;76.90
27506;DHT22;14939;43.596;1.320;2023-04-24T12:32:58;17.20;77.20
27506;DHT22;14939;43.596;1.320;2023-04-24T12:35:25;17.40;80.80
27506;DHT22;14939;43.596;1.320;2023-04-24T12:37:52;17.60;74.40
27506;DHT22;14939;43.596;1.320;2023-04-24T12:40:18;17.50;72.30
27506;DHT22;14939;43.596;1.320;2023-04-24T12:45:12;18.00;72.70
27506;DHT22;14939;43.596;1.320;2023-04-24T12:47:39;18.40;70.10
27506;DHT22;14939;43.596;1.320;2023-04-24T12:50:07;18.10;70.70
27506;DHT22;14939;43.596;1.320;2023-04-24T12:52:33;18.20;68.70
27506;DHT22;14939;43.596;1.320;2023-04-24T12:55:00;18.20;68.20
27506;DHT22;14939;43.596;1.320;2023-04-24T12:57:27;18.20;66.10
27506;DHT22;14939;43.596;1.320;2023-04-24T12:59:59;18.20;66.90
27506;DHT22;14939;43.596;1.320;2023-04-24T13:02:26;18.70;65.80
27506;DHT22;14939;43.596;1.320;2023-04-24T13:04:53;18.80;66.00
27506;DHT22;14939;43.596;1.320;2023-04-24T13:07:19;18.80;62.70
27506;DHT22;14939;43.596;1.320;2023-04-24T13:09:45;18.80;63.50
27506;DHT22;14939;43.596;1.320;2023-04-24T13:12:13;19.10;60.70
27506;DHT22;14939;43.596;1.320;2023-04-24T13:14:39;19.10;64.10
27506;DHT22;14939;43.596;1.320;2023-04-24T13:17:04;18.80;65.10
27506;DHT22;14939;43.596;1.320;2023-04-24T13:19:38;18.50;66.80
27506;DHT22;14939;43.596;1.320;2023-04-24T13:22:05;18.40;67.70
27506;DHT22;14939;43.596;1.320;2023-04-24T13:24:31;18.90;64.50
27506;DHT22;14939;43.596;1.320;2023-04-24T13:26:57;18.90;65.20
27506;DHT22;14939;43.596;1.320;2023-04-24T13:29:23;19.20;60.80
27506;DHT22;14939;43.596;1.320;2023-04-24T13:31:53;18.90;63.60
27506;DHT22;14939;43.596;1.320;2023-04-24T13:34:21;19.60;61.10
27506;DHT22;14939;43.596;1.320;2023-04-24T13:36:47;19.40;58.10
27506;DHT22;14939;43.596;1.320;2023-04-24T13:39:13;19.00;59.40
27506;DHT22;14939;43.596;1.320;2023-04-24T13:41:39;19.10;60.30
27506;DHT22;14939;43.596;1.320;2023-04-24T13:44:06;19.60;58.10
27506;DHT22;14939;43.596;1.320;2023-04-24T13:46:31;19.50;58.20
27506;DHT22;14939;43.596;1.320;2023-04-24T13:48:57;19.70;57.30
27506;DHT22;14939;43.596;1.320;2023-04-24T13:51:25;19.50;54.00
27506;DHT22;14939;43.596;1.320;2023-04-24T13:53:52;19.70;55.30
27506;DHT22;14939;43.596;1.320;2023-04-24T13:56:18;19.90;54.50
27506;DHT22;14939;43.596;1.320;2023-04-24T13:58:44;19.80;52.00
27506;DHT22;14939;43.596;1.320;2023-04-24T14:01:09;19.30;55.10
27506;DHT22;14939;43.596;1.320;2023-04-24T14:03:37;18.80;56.60
27506;DHT22;14939;43.596;1.320;2023-04-24T14:06:03;18.70;58.40
27506;DHT22;14939;43.596;1.320;2023-04-24T14:08:28;18.80;57.80
27506;DHT22;14939;43.596;1.320;2023-04-24T14:10:54;18.60;58.80
27506;DHT22;14939;43.596;1.320;2023-04-24T14:13:20;18.90;58.20
27506;DHT22;14939;43.596;1.320;2023-04-24T14:15:46;18.60;57.20
27506;DHT22;14939;43.596;1.320;2023-04-24T14:18:12;18.50;57.60
27506;DHT22;14939;43.596;1.320;2023-04-24T14:20:37;18.50;57.00
27506;DHT22;14939;43.596;1.320;2023-04-24T14:23:03;18.40;56.70
27506;DHT22;14939;43.596;1.320;2023-04-24T14:25:30;18.50;56.30
27506;DHT22;14939;43.596;1.320;2023-04-24T14:27:55;18.50;55.10
27506;DHT22;14939;43.596;1.320;2023-04-24T14:30:21;18.30;56.30
27506;DHT22;14939;43.596;1.320;2023-04-24T14:32:47;18.50;57.60
27506;DHT22;14939;43.596;1.320;2023-04-24T14:35:13;18.50;57.40
27506;DHT22;14939;43.596;1.320;2023-04-24T14:37:40;18.60;56.90
27506;DHT22;14939;43.596;1.320;2023-04-24T14:40:09;18.50;57.30
27506;DHT22;14939;43.596;1.320;2023-04-24T14:42:35;18.30;56.80
27506;DHT22;14939;43.596;1.320;2023-04-24T14:45:01;18.20;59.20
27506;DHT22;14939;43.596;1.320;2023-04-24T14:47:27;18.10;59.70
27506;DHT22;14939;43.596;1.320;2023-04-24T14:49:56;17.90;58.50
27506;DHT22;14939;43.596;1.320;2023-04-24T14:52:22;17.70;59.10
27506;DHT22;14939;43.596;1.320;2023-04-24T14:54:48;17.60;61.30
27506;DHT22;14939;43.596;1.320;2023-04-24T14:57:13;17.60;61.30
27506;DHT22;14939;43.596;1.320;2023-04-24T14:59:39;17.60;62.20
27506;DHT22;14939;43.596;1.320;2023-04-24T15:02:06;17.50;62.80
27506;DHT22;14939;43.596;1.320;2023-04-24T15:04:32;17.50;62.50
27506;DHT22;14939;43.596;1.320;2023-04-24T15:06:57;17.70;62.60
27506;DHT22;14939;43.596;1.320;2023-04-24T15:09:23;17.80;62.40
27506;DHT22;14939;43.596;1.320;2023-04-24T15:11:50;17.80;61.70
27506;DHT22;14939;43.596;1.320;2023-04-24T15:14:17;18.00;60.30
27506;DHT22;14939;43.596;1.320;2023-04-24T15:16:43;18.50;59.90
27506;DHT22;14939;43.596;1.320;2023-04-24T15:19:09;19.10;57.40
27506;DHT22;14939;43.596;1.320;2023-04-24T15:21:37;19.10;55.50
27506;DHT22;14939;43.596;1.320;2023-04-24T15:24:04;19.40;56.70
27506;DHT22;14939;43.596;1.320;2023-04-24T15:26:31;19.30;56.80
27506;DHT22;14939;43.596;1.320;2023-04-24T15:28:57;19.00;56.90
27506;DHT22;14939;43.596;1.320;2023-04-24T15:31:22;18.80;57.80
27506;DHT22;14939;43.596;1.320;2023-04-24T15:33:49;18.60;58.90
27506;DHT22;14939;43.596;1.320;2023-04-24T15:36:18;18.70;57.60
27506;DHT22;14939;43.596;1.320;2023-04-24T15:38:44;18.70;57.10
27506;DHT22;14939;43.596;1.320;2023-04-24T15:41:11;18.70;57.80
27506;DHT22;14939;43.596;1.320;2023-04-24T15:43:37;18.70;57.10
27506;DHT22;14939;43.596;1.320;2023-04-24T15:46:04;18.20;58.40
27506;DHT22;14939;43.596;1.320;2023-04-24T15:48:30;17.90;59.10
27506;DHT22;14939;43.596;1.320;2023-04-24T15:50:56;17.80;61.80
27506;DHT22;14939;43.596;1.320;2023-04-24T15:53:22;17.60;61.80